createdAt,value
2023-04-18T00:01:23.420Z,100.00
2023-04-18T00:03:49.827Z,100.00
2023-04-18T00:06:16.268Z,100.00
2023-04-18T00:08:42.440Z,100.00
2023-04-18T00:11:08.583Z,100.00
2023-04-18T00:13:34.746Z,100.00
2023-04-18T00:16:00.936Z,100.00
2023-04-18T00:18:27.103Z,100.00
2023-04-18T00:20:53.264Z,100.00
2023-04-18T00:23:19.459Z,100.00
2023-04-18T00:25:45.631Z,100.00
2023-04-18T00:28:11.803Z,100.00
2023-04-18T00:30:38.101Z,100.00
2023-04-18T00:33:04.406Z,100.00
2023-04-18T00:35:30.587Z,100.00
2023-04-18T00:37:56.708Z,100.00
2023-04-18T00:40:22.867Z,100.00
2023-04-18T00:42:49.059Z,100.00
2023-04-18T00:45:15.172Z,100.00
2023-04-18T00:47:41.398Z,100.00
2023-04-18T00:50:07.667Z,100.00
2023-04-18T00:52:33.800Z,100.00
2023-04-18T00:54:59.919Z,100.00
2023-04-18T00:57:26.071Z,100.00
2023-04-18T00:59:52.289Z,100.00
2023-04-18T01:02:18.440Z,100.00
2023-04-18T01:04:44.693Z,100.00
2023-04-18T01:07:10.808Z,100.00
2023-04-18T01:09:37.006Z,100.00
2023-04-18T01:12:03.128Z,100.00
2023-04-18T01:14:29.339Z,100.00
2023-04-18T01:16:55.520Z,100.00
2023-04-18T01:19:21.675Z,100.00
2023-04-18T01:21:47.849Z,100.00
2023-04-18T01:24:14.238Z,100.00
2023-04-18T01:26:40.568Z,100.00
2023-04-18T01:29:06.706Z,100.00
2023-04-18T01:31:32.949Z,100.00
2023-04-18T01:33:59.127Z,100.00
2023-04-18T01:36:25.284Z,100.00
2023-04-18T01:38:51.422Z,100.00
2023-04-18T01:41:17.567Z,100.00
2023-04-18T01:43:43.721Z,100.00
2023-04-18T01:46:09.885Z,100.00
2023-04-18T01:48:36.012Z,100.00
2023-04-18T01:51:02.195Z,100.00
2023-04-18T01:53:28.367Z,100.00
2023-04-18T01:55:54.531Z,100.00
2023-04-18T01:58:20.731Z,100.00
2023-04-18T02:00:46.963Z,100.00
2023-04-18T02:03:13.362Z,100.00
2023-04-18T02:05:39.621Z,100.00
2023-04-18T02:08:05.831Z,100.00
2023-04-18T02:10:32.003Z,100.00
2023-04-18T02:12:58.169Z,100.00
2023-04-18T02:15:24.380Z,100.00
2023-04-18T02:17:50.577Z,100.00
2023-04-18T02:20:16.819Z,100.00
2023-04-18T02:22:42.962Z,100.00
2023-04-18T02:25:09.107Z,100.00
2023-04-18T02:27:35.323Z,100.00
2023-04-18T02:30:01.446Z,100.00
2023-04-18T02:32:27.592Z,100.00
2023-04-18T02:34:53.757Z,100.00
2023-04-18T02:37:19.894Z,100.00
2023-04-18T02:39:46.095Z,100.00
2023-04-18T02:42:12.275Z,100.00
2023-04-18T02:44:39.669Z,100.00
2023-04-18T02:47:05.834Z,100.00
2023-04-18T02:49:31.998Z,100.00
2023-04-18T02:51:58.153Z,100.00
2023-04-18T02:54:24.326Z,100.00
2023-04-18T02:56:50.506Z,100.00
2023-04-18T02:59:16.637Z,100.00
2023-04-18T03:01:42.890Z,100.00
2023-04-18T03:04:09.055Z,100.00
2023-04-18T03:06:35.190Z,100.00
2023-04-18T03:09:01.309Z,100.00
2023-04-18T03:11:27.456Z,100.00
2023-04-18T03:13:53.600Z,100.00
2023-04-18T03:16:19.808Z,100.00
2023-04-18T03:18:46.075Z,100.00
2023-04-18T03:21:12.202Z,100.00
2023-04-18T03:23:38.409Z,100.00
2023-04-18T03:26:04.576Z,100.00
2023-04-18T03:28:30.702Z,100.00
2023-04-18T03:30:56.885Z,100.00
2023-04-18T03:33:23.078Z,100.00
2023-04-18T03:35:49.226Z,100.00
2023-04-18T03:38:15.407Z,100.00
2023-04-18T03:40:41.612Z,100.00
2023-04-18T03:43:07.773Z,100.00
2023-04-18T03:45:33.934Z,100.00
2023-04-18T03:48:00.124Z,100.00
2023-04-18T03:50:26.441Z,100.00
2023-04-18T03:52:52.640Z,100.00
2023-04-18T03:55:21.803Z,100.00
2023-04-18T03:57:48.031Z,100.00
2023-04-18T04:00:14.225Z,100.00
2023-04-18T04:02:40.546Z,100.00
2023-04-18T04:05:06.975Z,100.00
2023-04-18T04:07:33.149Z,100.00
2023-04-18T04:09:59.335Z,100.00
2023-04-18T04:12:25.455Z,100.00
2023-04-18T04:14:51.600Z,100.00
2023-04-18T04:17:17.786Z,100.00
2023-04-18T04:19:43.935Z,100.00
2023-04-18T04:22:10.134Z,100.00
2023-04-18T04:24:36.286Z,100.00
2023-04-18T04:27:02.465Z,100.00
2023-04-18T04:29:28.615Z,100.00
2023-04-18T04:31:54.817Z,100.00
2023-04-18T04:34:21.031Z,100.00
2023-04-18T04:36:47.195Z,100.00
2023-04-18T04:39:13.444Z,100.00
2023-04-18T04:41:39.618Z,100.00
2023-04-18T04:44:05.806Z,100.00
2023-04-18T04:46:31.959Z,100.00
2023-04-18T04:48:58.167Z,100.00
2023-04-18T04:51:24.348Z,100.00
2023-04-18T04:53:50.503Z,100.00
2023-04-18T04:56:16.711Z,100.00
2023-04-18T04:58:42.873Z,100.00
2023-04-18T05:01:09.114Z,100.00
2023-04-18T05:03:35.587Z,100.00
2023-04-18T05:06:01.915Z,100.00
2023-04-18T05:08:28.098Z,100.00
2023-04-18T05:10:54.258Z,100.00
2023-04-18T05:13:20.392Z,100.00
2023-04-18T05:15:46.537Z,100.00
2023-04-18T05:18:12.657Z,100.00
2023-04-18T05:20:38.794Z,100.00
2023-04-18T05:23:04.948Z,100.00
2023-04-18T05:25:31.132Z,100.00
2023-04-18T05:27:57.324Z,100.00
2023-04-18T05:30:23.527Z,100.00
2023-04-18T05:32:49.792Z,100.00
2023-04-18T05:35:16.016Z,100.00
2023-04-18T05:37:42.200Z,100.00
2023-04-18T05:40:08.356Z,100.00
2023-04-18T05:42:34.559Z,100.00
2023-04-18T05:45:00.761Z,100.00
2023-04-18T05:47:27.104Z,100.00
2023-04-18T05:49:53.274Z,100.00
2023-04-18T05:52:19.399Z,100.00
2023-04-18T05:54:45.579Z,100.00
2023-04-18T05:57:11.716Z,100.00
2023-04-18T05:59:37.914Z,100.00
2023-04-18T06:02:04.150Z,100.00
2023-04-18T06:04:30.481Z,100.00
2023-04-18T06:06:56.813Z,100.00
2023-04-18T06:09:22.995Z,100.00
2023-04-18T06:11:49.185Z,100.00
2023-04-18T06:14:15.754Z,100.00
2023-04-18T06:16:42.270Z,100.00
2023-04-18T06:19:08.412Z,100.00
2023-04-18T06:21:34.583Z,100.00
2023-04-18T06:24:00.772Z,100.00
2023-04-18T06:26:27.150Z,100.00
2023-04-18T06:28:53.357Z,100.00
2023-04-18T06:31:19.518Z,100.00
2023-04-18T06:33:45.716Z,100.00
2023-04-18T06:36:11.839Z,100.00
2023-04-18T06:38:38.073Z,100.00
2023-04-18T06:41:04.238Z,100.00
2023-04-18T06:43:30.423Z,100.00
2023-04-18T06:45:56.735Z,100.00
2023-04-18T06:48:23.021Z,100.00
2023-04-18T06:50:49.224Z,100.00
2023-04-18T06:53:15.395Z,100.00
2023-04-18T06:55:41.601Z,100.00
2023-04-18T06:58:07.754Z,100.00
2023-04-18T07:00:33.888Z,100.00
2023-04-18T07:03:00.260Z,100.00
2023-04-18T07:05:26.579Z,100.00
2023-04-18T07:07:52.787Z,100.00
2023-04-18T07:10:19.008Z,100.00
2023-04-18T07:12:45.184Z,100.00
2023-04-18T07:15:11.372Z,100.00
2023-04-18T07:17:37.614Z,100.00
2023-04-18T07:20:03.868Z,100.00
2023-04-18T07:22:30.018Z,100.00
2023-04-18T07:24:56.210Z,100.00
2023-04-18T07:27:22.405Z,100.00
2023-04-18T07:29:48.631Z,100.00
2023-04-18T07:32:14.933Z,100.00
2023-04-18T07:34:41.219Z,100.00
2023-04-18T07:37:07.491Z,100.00
2023-04-18T07:39:33.731Z,100.00
2023-04-18T07:41:59.919Z,100.00
2023-04-18T07:44:26.084Z,100.00
2023-04-18T07:46:52.320Z,100.00
2023-04-18T07:49:18.549Z,100.00
2023-04-18T07:51:44.730Z,100.00
2023-04-18T07:54:10.962Z,100.00
2023-04-18T07:56:37.150Z,100.00
2023-04-18T07:59:03.410Z,100.00
2023-04-18T08:01:29.641Z,100.00
2023-04-18T08:03:56.121Z,100.00
2023-04-18T08:06:22.519Z,100.00
2023-04-18T08:08:48.707Z,100.00
2023-04-18T08:11:14.896Z,100.00
2023-04-18T08:13:41.154Z,100.00
2023-04-18T08:16:07.447Z,100.00
2023-04-18T08:18:33.686Z,100.00
2023-04-18T08:20:59.924Z,100.00
2023-04-18T08:23:26.116Z,100.00
2023-04-18T08:25:52.288Z,100.00
2023-04-18T08:28:18.401Z,100.00
2023-04-18T08:30:44.971Z,100.00
2023-04-18T08:33:11.173Z,100.00
2023-04-18T08:35:37.353Z,100.00
2023-04-18T08:38:03.559Z,100.00
2023-04-18T08:40:29.788Z,100.00
2023-04-18T08:42:56.021Z,100.00
2023-04-18T08:45:22.193Z,100.00
2023-04-18T08:47:48.485Z,100.00
2023-04-18T08:50:14.761Z,100.00
2023-04-18T08:52:40.914Z,100.00
2023-04-18T08:55:07.161Z,100.00
2023-04-18T08:57:33.399Z,100.00
2023-04-18T08:59:59.639Z,100.00
2023-04-18T09:02:25.868Z,100.00
2023-04-18T09:04:52.069Z,100.00
2023-04-18T09:07:18.249Z,87.77
2023-04-18T09:09:44.468Z,84.15
2023-04-18T09:12:10.639Z,79.87
2023-04-18T09:14:36.834Z,78.04
2023-04-18T09:17:03.142Z,75.65
2023-04-18T09:19:29.407Z,86.29
2023-04-18T09:21:57.138Z,99.90
2023-04-18T09:24:23.430Z,99.57
2023-04-18T09:26:49.619Z,100.00
2023-04-18T09:29:15.856Z,100.00
2023-04-18T09:31:42.079Z,100.00
2023-04-18T09:34:08.256Z,100.00
2023-04-18T09:36:34.476Z,100.00
2023-04-18T09:39:00.675Z,100.00
2023-04-18T09:41:26.838Z,100.00
2023-04-18T09:43:53.081Z,100.00
2023-04-18T09:46:19.304Z,100.00
2023-04-18T09:48:45.502Z,100.00
2023-04-18T09:51:11.772Z,100.00
2023-04-18T09:53:37.980Z,100.00
2023-04-18T09:56:04.214Z,100.00
2023-04-18T09:58:30.429Z,100.00
2023-04-18T10:00:56.636Z,100.00
2023-04-18T10:03:22.877Z,100.00
2023-04-18T10:05:49.208Z,100.00
2023-04-18T10:08:15.457Z,100.00
2023-04-18T10:10:41.683Z,100.00
2023-04-18T10:13:07.890Z,100.00
2023-04-18T10:15:34.188Z,100.00
2023-04-18T10:18:05.185Z,100.00
2023-04-18T10:20:32.107Z,100.00
2023-04-18T10:22:58.369Z,100.00
2023-04-18T10:25:24.576Z,100.00
2023-04-18T10:27:53.339Z,100.00
2023-04-18T10:30:19.538Z,90.77
2023-04-18T10:32:45.758Z,91.01
2023-04-18T10:35:11.972Z,96.23
2023-04-18T10:37:38.143Z,99.86
2023-04-18T10:40:04.324Z,100.00
2023-04-18T10:42:30.598Z,100.00
2023-04-18T10:44:56.835Z,100.00
2023-04-18T10:47:23.215Z,100.00
2023-04-18T10:49:49.477Z,100.00
2023-04-18T10:52:15.647Z,100.00
2023-04-18T10:54:41.848Z,100.00
2023-04-18T10:57:08.117Z,99.25
2023-04-18T10:59:34.301Z,95.25
2023-04-18T11:02:00.590Z,78.76
2023-04-18T11:04:26.834Z,77.62
2023-04-18T11:06:53.137Z,70.09
2023-04-18T11:09:21.734Z,72.49
2023-04-18T11:11:47.926Z,70.65
2023-04-18T11:14:14.294Z,68.63
2023-04-18T11:16:40.764Z,59.71
2023-04-18T11:19:06.984Z,58.30
2023-04-18T11:21:33.201Z,57.75
2023-04-18T11:23:59.398Z,59.11
2023-04-18T11:26:25.576Z,63.01
2023-04-18T11:28:51.783Z,71.07
2023-04-18T11:31:17.941Z,70.71
2023-04-18T11:33:44.153Z,78.19
2023-04-18T11:36:10.372Z,80.25
2023-04-18T11:38:36.545Z,84.00
2023-04-18T11:41:02.759Z,87.86
2023-04-18T11:43:28.983Z,89.14
2023-04-18T11:45:55.310Z,96.99
2023-04-18T11:48:21.565Z,86.66
2023-04-18T11:50:47.788Z,85.12
2023-04-18T11:53:14.008Z,84.73
2023-04-18T11:55:40.230Z,81.88
2023-04-18T11:58:06.432Z,81.76
2023-04-18T12:00:32.581Z,79.24
2023-04-18T12:02:58.904Z,79.75
2023-04-18T12:05:25.427Z,83.87
2023-04-18T12:07:51.913Z,87.10
2023-04-18T12:10:18.076Z,70.09
2023-04-18T12:12:44.300Z,68.71
2023-04-18T12:15:10.508Z,68.36
2023-04-18T12:17:36.735Z,70.16
2023-04-18T12:20:02.986Z,66.60
2023-04-18T12:22:29.257Z,64.26
2023-04-18T12:24:55.425Z,64.77
2023-04-18T12:27:23.445Z,68.29
2023-04-18T12:29:49.634Z,69.37
2023-04-18T12:32:15.824Z,76.04
2023-04-18T12:34:42.034Z,77.16
2023-04-18T12:37:08.266Z,79.48
2023-04-18T12:39:34.475Z,82.21
2023-04-18T12:42:00.706Z,88.74
2023-04-18T12:44:27.791Z,90.79
2023-04-18T12:46:54.022Z,90.96
2023-04-18T12:49:20.199Z,84.46
2023-04-18T12:51:46.392Z,88.84
2023-04-18T12:54:12.665Z,89.96
2023-04-18T12:56:39.009Z,89.93
2023-04-18T12:59:05.205Z,93.11
2023-04-18T13:01:31.364Z,93.36
2023-04-18T13:04:11.059Z,90.09
2023-04-18T13:06:38.417Z,88.66
2023-04-18T13:09:04.627Z,87.47
2023-04-18T13:11:30.846Z,87.39
2023-04-18T13:13:57.092Z,84.10
2023-04-18T13:16:23.526Z,86.52
2023-04-18T13:18:49.719Z,88.00
2023-04-18T13:21:15.856Z,93.41
2023-04-18T13:23:42.006Z,90.93
2023-04-18T13:26:08.131Z,95.18
2023-04-18T13:28:34.284Z,89.38
2023-04-18T13:31:00.499Z,90.44
2023-04-18T13:33:26.693Z,91.93
2023-04-18T13:35:52.892Z,95.29
2023-04-18T13:38:19.100Z,92.83
2023-04-18T13:40:45.309Z,91.07
2023-04-18T13:43:11.490Z,94.66
2023-04-18T13:45:37.746Z,86.15
2023-04-18T13:48:04.169Z,89.85
2023-04-18T13:50:30.372Z,84.05
2023-04-18T13:52:56.602Z,87.68
2023-04-18T13:55:22.774Z,88.13
2023-04-18T13:57:48.945Z,91.10
2023-04-18T14:00:15.125Z,91.89
2023-04-18T14:02:41.353Z,88.76
2023-04-18T14:05:07.715Z,91.60
2023-04-18T14:07:33.916Z,85.23
2023-04-18T14:10:00.171Z,86.07
2023-04-18T14:12:26.338Z,83.79
2023-04-18T14:14:52.523Z,88.20
2023-04-18T14:17:18.685Z,92.41
2023-04-18T14:19:44.819Z,88.58
2023-04-18T14:22:11.005Z,87.00
2023-04-18T14:24:37.193Z,84.20
2023-04-18T14:27:03.341Z,82.81
2023-04-18T14:29:29.513Z,80.89
2023-04-18T14:31:55.693Z,86.24
2023-04-18T14:34:21.871Z,86.08
2023-04-18T14:36:48.027Z,88.08
2023-04-18T14:39:14.444Z,88.81
2023-04-18T14:41:40.737Z,84.96
2023-04-18T14:44:06.969Z,78.20
2023-04-18T14:46:33.207Z,80.93
2023-04-18T14:48:59.402Z,81.53
2023-04-18T14:51:25.612Z,78.62
2023-04-18T14:53:51.813Z,81.12
2023-04-18T14:56:17.948Z,81.16
2023-04-18T14:58:44.095Z,79.67
2023-04-18T15:01:10.277Z,82.27
2023-04-18T15:03:36.598Z,83.62
2023-04-18T15:08:53.818Z,77.67
2023-04-18T15:11:19.946Z,77.86
2023-04-18T15:13:46.183Z,78.22
2023-04-18T15:16:12.395Z,78.86
2023-04-18T15:18:38.600Z,82.92
2023-04-18T15:21:04.752Z,84.19
2023-04-18T15:23:30.910Z,85.26
2023-04-18T15:25:57.095Z,84.10
2023-04-18T15:28:23.262Z,84.02
2023-04-18T15:30:49.462Z,86.89
2023-04-18T15:33:15.689Z,89.74
2023-04-18T15:35:41.867Z,84.55
2023-04-18T15:38:08.147Z,87.03
2023-04-18T15:40:34.373Z,79.72
2023-04-18T15:43:00.580Z,77.64
2023-04-18T15:45:26.744Z,77.72
2023-04-18T15:47:53.124Z,81.73
2023-04-18T15:50:19.450Z,84.02
2023-04-18T15:52:45.640Z,92.37
2023-04-18T15:55:11.858Z,87.59
2023-04-18T15:57:38.078Z,86.68
2023-04-18T16:00:04.254Z,87.80
2023-04-18T16:02:30.648Z,83.19
2023-04-18T16:04:56.892Z,82.94
2023-04-18T16:07:23.103Z,83.30
2023-04-18T16:09:49.249Z,87.95
2023-04-18T16:12:15.431Z,84.93
2023-04-18T16:14:41.595Z,89.32
2023-04-18T16:17:07.787Z,84.18
2023-04-18T16:19:36.207Z,87.71
2023-04-18T16:22:02.526Z,88.81
2023-04-18T16:24:28.681Z,88.49
2023-04-18T16:26:54.863Z,85.75
2023-04-18T16:29:21.047Z,88.50
2023-04-18T16:31:47.344Z,93.23
2023-04-18T16:34:13.783Z,87.94
2023-04-18T16:36:40.002Z,88.69
2023-04-18T16:39:06.153Z,88.05
2023-04-18T16:41:32.330Z,86.39
2023-04-18T16:43:58.456Z,85.70
2023-04-18T16:46:24.630Z,83.65
2023-04-18T16:48:52.386Z,88.44
2023-04-18T16:51:18.884Z,90.29
2023-04-18T16:53:45.090Z,91.91
2023-04-18T16:56:11.233Z,84.52
2023-04-18T16:58:37.433Z,89.48
2023-04-18T17:01:03.897Z,86.37
2023-04-18T17:03:30.125Z,83.08
2023-04-18T17:05:57.556Z,85.10
2023-04-18T17:08:23.689Z,91.45
2023-04-18T17:10:49.891Z,89.49
2023-04-18T17:13:16.075Z,89.27
2023-04-18T17:15:42.280Z,94.00
2023-04-18T17:18:08.513Z,90.94
2023-04-18T17:20:34.707Z,92.96
2023-04-18T17:23:00.836Z,97.15
2023-04-18T17:28:11.131Z,91.15
2023-04-18T17:30:37.332Z,92.48
2023-04-18T17:33:03.520Z,93.01
2023-04-18T17:35:29.710Z,96.77
2023-04-18T17:37:56.053Z,97.90
2023-04-18T17:40:22.232Z,98.38
2023-04-18T17:42:48.438Z,98.50
2023-04-18T17:45:14.629Z,100.00
2023-04-18T17:47:40.965Z,100.00
2023-04-18T17:50:07.248Z,100.00
2023-04-18T17:52:33.386Z,100.00
2023-04-18T17:54:59.610Z,100.00
2023-04-18T17:57:25.765Z,100.00
2023-04-18T17:59:51.927Z,100.00
2023-04-18T18:02:18.117Z,100.00
2023-04-18T18:04:44.633Z,100.00
2023-04-18T18:07:10.913Z,100.00
2023-04-18T18:09:37.132Z,100.00
2023-04-18T18:12:03.277Z,100.00
2023-04-18T18:14:29.431Z,100.00
2023-04-18T18:16:55.647Z,100.00
2023-04-18T18:19:21.873Z,100.00
2023-04-18T18:21:48.066Z,100.00
2023-04-18T18:24:14.294Z,100.00
2023-04-18T18:26:43.258Z,100.00
2023-04-18T18:29:09.495Z,100.00
2023-04-18T18:31:35.733Z,100.00
2023-04-18T18:34:01.918Z,100.00
2023-04-18T18:36:28.084Z,100.00
2023-04-18T18:38:54.264Z,100.00
2023-04-18T18:41:20.484Z,100.00
2023-04-18T18:43:46.671Z,100.00
2023-04-18T18:46:12.894Z,100.00
2023-04-18T18:48:39.166Z,100.00
2023-04-18T18:51:05.375Z,100.00
2023-04-18T18:53:31.582Z,100.00
2023-04-18T18:55:57.737Z,100.00
2023-04-18T18:58:24.044Z,100.00
2023-04-18T19:00:50.277Z,100.00
2023-04-18T19:03:16.625Z,100.00
2023-04-18T19:05:42.943Z,100.00
2023-04-18T19:08:09.123Z,100.00
2023-04-18T19:10:35.284Z,100.00
2023-04-18T19:13:01.530Z,100.00
2023-04-18T19:15:27.702Z,100.00
2023-04-18T19:17:53.966Z,100.00
2023-04-18T19:20:20.158Z,100.00
2023-04-18T19:22:46.320Z,100.00
2023-04-18T19:25:12.501Z,100.00
2023-04-18T19:27:38.726Z,100.00
2023-04-18T19:30:05.077Z,100.00
2023-04-18T19:32:31.285Z,100.00
2023-04-18T19:34:57.454Z,100.00
2023-04-18T19:37:25.116Z,100.00
2023-04-18T19:39:51.264Z,100.00
2023-04-18T19:42:17.424Z,100.00
2023-04-18T19:44:43.586Z,100.00
2023-04-18T19:47:09.837Z,100.00
2023-04-18T19:49:36.023Z,100.00
2023-04-18T19:52:02.231Z,100.00
2023-04-18T19:54:28.450Z,100.00
2023-04-18T19:56:55.876Z,100.00
2023-04-18T19:59:22.045Z,100.00
2023-04-18T20:01:48.285Z,100.00
2023-04-18T20:04:14.759Z,100.00
2023-04-18T20:06:41.152Z,100.00
2023-04-18T20:09:07.296Z,100.00
2023-04-18T20:11:33.469Z,100.00
2023-04-18T20:13:59.699Z,100.00
2023-04-18T20:16:25.955Z,100.00
2023-04-18T20:18:54.672Z,100.00
2023-04-18T20:21:21.288Z,100.00
2023-04-18T20:23:47.494Z,100.00
2023-04-18T20:26:13.680Z,100.00
2023-04-18T20:28:39.859Z,100.00
2023-04-18T20:31:06.094Z,100.00
2023-04-18T20:33:32.288Z,100.00
2023-04-18T20:35:58.535Z,100.00
2023-04-18T20:38:25.860Z,100.00
2023-04-18T20:40:52.483Z,100.00
2023-04-18T20:43:18.634Z,100.00
2023-04-18T20:45:44.841Z,100.00
2023-04-18T20:48:11.037Z,100.00
2023-04-18T20:50:37.206Z,100.00
2023-04-18T20:53:03.398Z,100.00
2023-04-18T20:55:29.573Z,100.00
2023-04-18T20:57:55.714Z,100.00
2023-04-18T21:00:21.886Z,100.00
2023-04-18T21:02:48.274Z,100.00
2023-04-18T21:05:14.574Z,100.00
2023-04-18T21:07:40.713Z,100.00
2023-04-18T21:10:06.926Z,100.00
2023-04-18T21:12:33.111Z,100.00
2023-04-18T21:14:59.238Z,100.00
2023-04-18T21:17:25.508Z,100.00
2023-04-18T21:19:51.745Z,100.00
2023-04-18T21:22:17.977Z,100.00
2023-04-18T21:24:44.195Z,100.00
2023-04-18T21:27:10.360Z,100.00
2023-04-18T21:29:36.510Z,100.00
2023-04-18T21:32:02.655Z,100.00
2023-04-18T21:34:28.821Z,100.00
2023-04-18T21:36:55.024Z,100.00
2023-04-18T21:39:21.193Z,100.00
2023-04-18T21:41:47.353Z,100.00
2023-04-18T21:44:13.699Z,100.00
2023-04-18T21:46:40.036Z,100.00
2023-04-18T21:49:06.228Z,100.00
2023-04-18T21:51:32.376Z,100.00
2023-04-18T21:53:58.541Z,100.00
2023-04-18T21:56:24.731Z,100.00
2023-04-18T21:58:50.916Z,100.00
2023-04-18T22:01:17.078Z,100.00
2023-04-18T22:03:43.551Z,100.00
2023-04-18T22:06:09.907Z,100.00
2023-04-18T22:08:36.140Z,100.00
2023-04-18T22:11:02.393Z,100.00
2023-04-18T22:13:28.564Z,100.00
2023-04-18T22:15:54.765Z,100.00
2023-04-18T22:18:20.933Z,100.00
2023-04-18T22:20:47.082Z,100.00
2023-04-18T22:23:13.251Z,100.00
2023-04-18T22:25:39.412Z,100.00
2023-04-18T22:28:05.576Z,100.00
2023-04-18T22:30:31.785Z,100.00
2023-04-18T22:32:58.101Z,100.00
2023-04-18T22:35:24.407Z,100.00
2023-04-18T22:37:50.536Z,100.00
2023-04-18T22:40:16.708Z,100.00
2023-04-18T22:42:42.859Z,100.00
2023-04-18T22:45:09.008Z,100.00
2023-04-18T22:47:35.223Z,100.00
2023-04-18T22:50:01.419Z,100.00
2023-04-18T22:52:27.555Z,100.00
2023-04-18T22:54:53.740Z,100.00
2023-04-18T22:57:19.900Z,100.00
2023-04-18T22:59:46.049Z,100.00
2023-04-18T23:02:12.318Z,100.00
2023-04-18T23:04:38.570Z,100.00
2023-04-18T23:07:04.732Z,100.00
2023-04-18T23:09:30.923Z,100.00
2023-04-18T23:11:57.078Z,100.00
2023-04-18T23:14:23.191Z,100.00
2023-04-18T23:16:49.369Z,100.00
2023-04-18T23:19:15.552Z,100.00
2023-04-18T23:21:41.745Z,100.00
2023-04-18T23:24:07.897Z,100.00
2023-04-18T23:26:34.107Z,100.00
2023-04-18T23:29:00.313Z,100.00
2023-04-18T23:31:26.571Z,100.00
2023-04-18T23:33:52.768Z,100.00
2023-04-18T23:36:18.928Z,100.00
2023-04-18T23:38:45.086Z,100.00
2023-04-18T23:41:11.253Z,100.00
2023-04-18T23:43:37.386Z,100.00
2023-04-18T23:46:03.552Z,100.00
2023-04-18T23:48:29.708Z,100.00
2023-04-18T23:50:55.846Z,100.00
2023-04-18T23:53:22.047Z,100.00
2023-04-18T23:55:50.094Z,100.00
2023-04-18T23:58:16.974Z,100.00
